Terminal Aerodrome Forecast
Issued by NWS Memphis, TN

Home | Current Version | Previous Version | Text Only | Print | Product List | Glossary On
Versions: 1 2 3 4 5 6 7 8 9 10 11 12 13 14 15 16 17 18 19 20 21 22 23 24 25 26 27 28
000
FTUS44 KMEG 242100 AAB
TAFMEM
TAF AMD
KMEM 242133Z 2422/2518 19015G25KT P6SM VCTS BKN045CB BKN150
      TEMPO 2422/2424 3SM TSRA BKN029CB
     FM250500 27015G23KT P6SM OVC015
     FM251100 30010KT P6SM SCT035
     FM251300 32010KT P6SM SKC=

USA.gov is the U.S. government's official web portal to all federal, state and local government web resources and services.